Saturday, November 17, 2018, 6:43 AM GMT
Back to Local

CWNQ, Nicolet Automatic Weather Reporting System

Location: , , Canada Lat: 46.217
Local Time: 6:43 AM GMT ( 6:43 GMT) Lon: -72.65
Time Zone: GMT Elev: 32 ft

Show me the last for .
Show Coded

Time T Td Feel RH Dir Speed Gust Alt SLP Vis Weather Sky Remarks
2018-11-17 06:00 24 20 15 85 200° 7 - - 29.73 0 None
2018-11-17 05:00 24 20 16 86 200° 6 - - 29.71 0 1-hr Precip Total: 0.04"
2018-11-17 04:00 23 20 16 87 210° 6 - - 29.68 0 None
2018-11-17 03:00 23 20 18 87 210° 3 - - 29.67 0 None
2018-11-17 02:00 22 20 - 89 240° 1 - - 29.67 0 None
2018-11-17 01:00 23 20 - 89 290° 1 - - 29.66 0 1-hr Precip Total: 0.04"
2018-11-17 00:00 23 20 - 88 - Calm - - 29.65 0 None
2018-11-16 23:00 23 19 - 85 60° 2 - - 29.65 0 None
2018-11-16 22:00 24 19 16 82 60° 6 - - 29.65 0 None
2018-11-16 21:00 24 19 16 81 50° 7 - - 29.65 0 None
2018-11-16 20:00 24 19 16 82 40° 7 - - 29.66 0 None
2018-11-16 19:00 25 19 16 78 50° 8 - - 29.67 0 None
2018-11-16 18:00 24 19 15 79 50° 9 - - 29.70 0 None
2018-11-16 17:00 23 19 10 81 40° 9 17 - 29.72 0 1-hr Precip Total: 0.05"
2018-11-16 16:00 23 18 8 81 50° 10 18 - 29.76 0 Peak wind: 19 mph (17 kts) from 50° at 10 min
2018-11-16 15:00 22 18 12 82 50° 9 - - 29.78 0 None
2018-11-16 14:00 22 18 12 84 50° 9 - - 29.82 0 1-hr Precip Total: 0.04"
2018-11-16 13:00 21 18 12 85 40° 8 - - 29.86 0 1-hr Precip Total: 0.04"
2018-11-16 12:00 21 17 13 85 50° 6 - - 29.90 0 1-hr Precip Total: 0.06"
2018-11-16 11:00 20 16 15 84 40° 3 - - 29.94 0 None
2018-11-16 10:00 22 13 16 68 60° 5 - - 29.97 0 None
2018-11-16 09:00 20 12 10 69 60° 8 - - 29.98 0 None
2018-11-16 08:00 20 11 10 70 50° 8 - - 30.01 0 Pressure falling rapidly
2018-11-16 07:00 19 11 11 71 50° 6 - - 30.09 0 None

Support USWX by starting your Amazon purchase here.